sensor_id;sensor_type;location;lat;lon;timestamp;P1;durP1;ratioP1;P2;durP2;ratioP2
8337;SDS011;4206;48.634;9.516;2022-11-15T00:00:55;1.70;;;0.77;;
8337;SDS011;4206;48.634;9.516;2022-11-15T00:03:21;2.30;;;1.00;;
8337;SDS011;4206;48.634;9.516;2022-11-15T00:05:48;1.07;;;0.77;;
8337;SDS011;4206;48.634;9.516;2022-11-15T00:08:14;1.80;;;1.00;;
8337;SDS011;4206;48.634;9.516;2022-11-15T00:10:40;2.10;;;0.80;;
8337;SDS011;4206;48.634;9.516;2022-11-15T00:13:07;5.60;;;1.30;;
8337;SDS011;4206;48.634;9.516;2022-11-15T00:15:35;2.90;;;1.10;;
8337;SDS011;4206;48.634;9.516;2022-11-15T00:18:01;2.07;;;1.43;;
8337;SDS011;4206;48.634;9.516;2022-11-15T00:20:28;1.70;;;0.60;;
8337;SDS011;4206;48.634;9.516;2022-11-15T00:22:54;2.90;;;0.90;;
8337;SDS011;4206;48.634;9.516;2022-11-15T00:25:20;4.73;;;1.20;;
8337;SDS011;4206;48.634;9.516;2022-11-15T00:27:46;2.93;;;0.77;;
8337;SDS011;4206;48.634;9.516;2022-11-15T00:30:12;2.03;;;0.83;;
8337;SDS011;4206;48.634;9.516;2022-11-15T00:32:38;1.53;;;0.80;;
8337;SDS011;4206;48.634;9.516;2022-11-15T00:35:04;2.10;;;0.93;;
8337;SDS011;4206;48.634;9.516;2022-11-15T00:37:30;1.40;;;0.63;;
8337;SDS011;4206;48.634;9.516;2022-11-15T00:39:55;2.40;;;0.97;;
8337;SDS011;4206;48.634;9.516;2022-11-15T00:42:21;2.63;;;0.60;;
8337;SDS011;4206;48.634;9.516;2022-11-15T00:44:47;2.13;;;1.00;;
8337;SDS011;4206;48.634;9.516;2022-11-15T00:47:12;1.20;;;0.87;;
8337;SDS011;4206;48.634;9.516;2022-11-15T00:49:38;3.23;;;0.70;;
8337;SDS011;4206;48.634;9.516;2022-11-15T00:52:03;1.20;;;1.10;;
8337;SDS011;4206;48.634;9.516;2022-11-15T00:54:29;3.23;;;1.13;;
8337;SDS011;4206;48.634;9.516;2022-11-15T00:56:55;2.20;;;1.03;;
8337;SDS011;4206;48.634;9.516;2022-11-15T00:59:20;2.83;;;1.40;;
8337;SDS011;4206;48.634;9.516;2022-11-15T01:01:46;1.80;;;1.37;;
8337;SDS011;4206;48.634;9.516;2022-11-15T01:04:11;3.70;;;1.50;;
8337;SDS011;4206;48.634;9.516;2022-11-15T01:06:37;1.10;;;0.90;;
8337;SDS011;4206;48.634;9.516;2022-11-15T01:09:03;3.07;;;1.57;;
8337;SDS011;4206;48.634;9.516;2022-11-15T01:11:28;1.80;;;1.07;;
8337;SDS011;4206;48.634;9.516;2022-11-15T01:13:54;1.83;;;1.27;;
8337;SDS011;4206;48.634;9.516;2022-11-15T01:16:20;4.60;;;1.40;;
8337;SDS011;4206;48.634;9.516;2022-11-15T01:18:45;3.13;;;1.30;;
8337;SDS011;4206;48.634;9.516;2022-11-15T01:21:15;2.50;;;1.40;;
8337;SDS011;4206;48.634;9.516;2022-11-15T01:23:42;1.60;;;1.30;;
8337;SDS011;4206;48.634;9.516;2022-11-15T01:26:10;5.33;;;1.77;;
8337;SDS011;4206;48.634;9.516;2022-11-15T01:28:38;4.03;;;1.47;;
8337;SDS011;4206;48.634;9.516;2022-11-15T01:31:06;3.20;;;2.17;;
8337;SDS011;4206;48.634;9.516;2022-11-15T01:33:35;3.80;;;2.10;;
8337;SDS011;4206;48.634;9.516;2022-11-15T01:36:05;2.30;;;1.40;;
8337;SDS011;4206;48.634;9.516;2022-11-15T01:38:32;3.00;;;2.13;;
8337;SDS011;4206;48.634;9.516;2022-11-15T01:40:58;4.73;;;1.97;;
8337;SDS011;4206;48.634;9.516;2022-11-15T01:43:26;9.37;;;2.13;;
8337;SDS011;4206;48.634;9.516;2022-11-15T01:45:55;3.83;;;1.70;;
8337;SDS011;4206;48.634;9.516;2022-11-15T01:48:25;2.30;;;1.50;;
8337;SDS011;4206;48.634;9.516;2022-11-15T01:50:55;3.90;;;2.33;;
8337;SDS011;4206;48.634;9.516;2022-11-15T01:53:21;3.37;;;2.23;;
8337;SDS011;4206;48.634;9.516;2022-11-15T01:55:49;4.10;;;1.93;;
8337;SDS011;4206;48.634;9.516;2022-11-15T01:58:15;3.23;;;2.13;;
8337;SDS011;4206;48.634;9.516;2022-11-15T02:00:40;4.10;;;2.63;;
8337;SDS011;4206;48.634;9.516;2022-11-15T02:03:06;4.40;;;2.40;;
8337;SDS011;4206;48.634;9.516;2022-11-15T02:05:32;5.43;;;2.53;;
8337;SDS011;4206;48.634;9.516;2022-11-15T02:07:59;3.67;;;2.23;;
8337;SDS011;4206;48.634;9.516;2022-11-15T02:10:27;6.33;;;2.17;;
8337;SDS011;4206;48.634;9.516;2022-11-15T02:12:53;3.70;;;2.50;;
8337;SDS011;4206;48.634;9.516;2022-11-15T02:15:22;2.97;;;2.43;;
8337;SDS011;4206;48.634;9.516;2022-11-15T02:20:27;2.90;;;2.27;;
8337;SDS011;4206;48.634;9.516;2022-11-15T02:23:04;6.73;;;2.63;;
8337;SDS011;4206;48.634;9.516;2022-11-15T02:36:35;3.80;;;2.70;;
8337;SDS011;4206;48.634;9.516;2022-11-15T02:39:03;3.57;;;2.80;;
8337;SDS011;4206;48.634;9.516;2022-11-15T02:44:28;6.97;;;2.10;;
8337;SDS011;4206;48.634;9.516;2022-11-15T02:47:02;3.20;;;2.60;;
8337;SDS011;4206;48.634;9.516;2022-11-15T02:49:51;4.80;;;2.80;;
8337;SDS011;4206;48.634;9.516;2022-11-15T02:52:19;5.50;;;3.00;;
8337;SDS011;4206;48.634;9.516;2022-11-15T02:54:54;5.30;;;2.30;;
8337;SDS011;4206;48.634;9.516;2022-11-15T02:57:29;3.57;;;2.03;;
8337;SDS011;4206;48.634;9.516;2022-11-15T03:00:10;3.23;;;2.50;;
8337;SDS011;4206;48.634;9.516;2022-11-15T03:05:28;4.20;;;2.70;;
8337;SDS011;4206;48.634;9.516;2022-11-15T03:08:12;4.07;;;2.03;;
8337;SDS011;4206;48.634;9.516;2022-11-15T03:10:48;4.77;;;2.77;;
8337;SDS011;4206;48.634;9.516;2022-11-15T03:13:26;4.90;;;2.00;;
8337;SDS011;4206;48.634;9.516;2022-11-15T03:16:03;8.87;;;3.03;;
8337;SDS011;4206;48.634;9.516;2022-11-15T03:18:32;3.60;;;2.20;;
8337;SDS011;4206;48.634;9.516;2022-11-15T03:21:01;3.80;;;2.13;;
8337;SDS011;4206;48.634;9.516;2022-11-15T03:23:29;3.37;;;2.50;;
8337;SDS011;4206;48.634;9.516;2022-11-15T03:25:56;3.90;;;2.70;;
8337;SDS011;4206;48.634;9.516;2022-11-15T03:28:25;2.80;;;2.47;;
8337;SDS011;4206;48.634;9.516;2022-11-15T03:30:58;3.70;;;2.63;;
8337;SDS011;4206;48.634;9.516;2022-11-15T03:33:47;3.13;;;2.50;;
8337;SDS011;4206;48.634;9.516;2022-11-15T03:36:15;3.63;;;2.40;;
8337;SDS011;4206;48.634;9.516;2022-11-15T03:38:42;2.93;;;2.20;;
8337;SDS011;4206;48.634;9.516;2022-11-15T03:41:13;4.23;;;2.70;;
8337;SDS011;4206;48.634;9.516;2022-11-15T03:43:54;5.17;;;2.60;;
8337;SDS011;4206;48.634;9.516;2022-11-15T03:46:32;4.10;;;2.80;;
8337;SDS011;4206;48.634;9.516;2022-11-15T03:49:04;8.13;;;2.90;;
8337;SDS011;4206;48.634;9.516;2022-11-15T03:51:33;4.83;;;2.50;;
8337;SDS011;4206;48.634;9.516;2022-11-15T03:53:59;3.97;;;2.40;;
8337;SDS011;4206;48.634;9.516;2022-11-15T03:56:28;2.93;;;2.23;;
8337;SDS011;4206;48.634;9.516;2022-11-15T03:58:54;4.80;;;2.50;;
8337;SDS011;4206;48.634;9.516;2022-11-15T04:01:19;5.43;;;2.83;;
8337;SDS011;4206;48.634;9.516;2022-11-15T04:03:45;6.20;;;3.53;;
8337;SDS011;4206;48.634;9.516;2022-11-15T04:06:11;5.70;;;3.50;;
8337;SDS011;4206;48.634;9.516;2022-11-15T04:08:36;4.83;;;3.03;;
8337;SDS011;4206;48.634;9.516;2022-11-15T04:11:02;4.30;;;2.63;;
8337;SDS011;4206;48.634;9.516;2022-11-15T04:13:27;5.30;;;3.30;;
8337;SDS011;4206;48.634;9.516;2022-11-15T04:15:53;3.83;;;2.80;;
8337;SDS011;4206;48.634;9.516;2022-11-15T04:18:19;6.30;;;3.50;;
8337;SDS011;4206;48.634;9.516;2022-11-15T04:20:44;4.40;;;3.00;;
8337;SDS011;4206;48.634;9.516;2022-11-15T04:23:25;4.57;;;2.40;;
8337;SDS011;4206;48.634;9.516;2022-11-15T04:26:08;8.47;;;3.00;;
8337;SDS011;4206;48.634;9.516;2022-11-15T04:28:36;4.97;;;3.00;;
8337;SDS011;4206;48.634;9.516;2022-11-15T04:31:22;3.43;;;2.63;;
8337;SDS011;4206;48.634;9.516;2022-11-15T04:33:48;9.43;;;4.40;;
8337;SDS011;4206;48.634;9.516;2022-11-15T04:36:13;10.67;;;5.20;;
8337;SDS011;4206;48.634;9.516;2022-11-15T04:38:54;5.23;;;3.70;;
8337;SDS011;4206;48.634;9.516;2022-11-15T04:41:20;4.97;;;3.50;;
8337;SDS011;4206;48.634;9.516;2022-11-15T04:43:45;4.80;;;3.00;;
8337;SDS011;4206;48.634;9.516;2022-11-15T04:46:11;6.33;;;3.60;;
8337;SDS011;4206;48.634;9.516;2022-11-15T04:48:36;4.60;;;2.87;;
8337;SDS011;4206;48.634;9.516;2022-11-15T04:51:02;4.23;;;3.10;;
8337;SDS011;4206;48.634;9.516;2022-11-15T04:53:28;4.20;;;2.73;;
8337;SDS011;4206;48.634;9.516;2022-11-15T04:55:53;5.20;;;3.00;;
8337;SDS011;4206;48.634;9.516;2022-11-15T04:58:19;6.70;;;4.20;;
8337;SDS011;4206;48.634;9.516;2022-11-15T05:00:44;10.37;;;3.80;;
8337;SDS011;4206;48.634;9.516;2022-11-15T05:03:10;5.87;;;3.10;;
8337;SDS011;4206;48.634;9.516;2022-11-15T05:05:51;5.10;;;3.53;;
8337;SDS011;4206;48.634;9.516;2022-11-15T05:08:17;7.70;;;2.90;;
8337;SDS011;4206;48.634;9.516;2022-11-15T05:10:42;5.47;;;3.30;;
8337;SDS011;4206;48.634;9.516;2022-11-15T05:13:08;4.20;;;2.80;;
8337;SDS011;4206;48.634;9.516;2022-11-15T05:15:33;5.47;;;2.97;;
8337;SDS011;4206;48.634;9.516;2022-11-15T05:17:59;4.07;;;3.23;;
8337;SDS011;4206;48.634;9.516;2022-11-15T05:20:26;9.27;;;3.60;;
8337;SDS011;4206;48.634;9.516;2022-11-15T05:22:52;6.40;;;3.37;;
8337;SDS011;4206;48.634;9.516;2022-11-15T05:25:20;9.33;;;3.17;;
8337;SDS011;4206;48.634;9.516;2022-11-15T05:27:46;7.63;;;3.50;;
8337;SDS011;4206;48.634;9.516;2022-11-15T05:30:12;4.50;;;3.20;;
8337;SDS011;4206;48.634;9.516;2022-11-15T05:32:37;7.03;;;4.90;;
8337;SDS011;4206;48.634;9.516;2022-11-15T05:35:03;8.30;;;4.47;;
8337;SDS011;4206;48.634;9.516;2022-11-15T05:37:31;7.93;;;4.97;;
8337;SDS011;4206;48.634;9.516;2022-11-15T05:39:57;7.03;;;4.73;;
8337;SDS011;4206;48.634;9.516;2022-11-15T05:42:23;9.57;;;4.50;;
8337;SDS011;4206;48.634;9.516;2022-11-15T05:44:51;8.30;;;4.50;;
8337;SDS011;4206;48.634;9.516;2022-11-15T05:47:18;26.57;;;17.20;;
8337;SDS011;4206;48.634;9.516;2022-11-15T05:49:47;31.03;;;18.37;;
8337;SDS011;4206;48.634;9.516;2022-11-15T05:52:15;27.50;;;17.77;;
8337;SDS011;4206;48.634;9.516;2022-11-15T05:54:44;26.07;;;15.70;;
8337;SDS011;4206;48.634;9.516;2022-11-15T05:57:09;16.87;;;11.40;;
8337;SDS011;4206;48.634;9.516;2022-11-15T05:59:35;18.73;;;11.10;;
8337;SDS011;4206;48.634;9.516;2022-11-15T06:02:01;10.10;;;7.17;;
8337;SDS011;4206;48.634;9.516;2022-11-15T06:04:27;11.60;;;6.70;;
8337;SDS011;4206;48.634;9.516;2022-11-15T06:06:52;9.50;;;5.70;;
8337;SDS011;4206;48.634;9.516;2022-11-15T06:09:18;11.10;;;6.87;;
8337;SDS011;4206;48.634;9.516;2022-11-15T06:11:43;17.60;;;9.60;;
8337;SDS011;4206;48.634;9.516;2022-11-15T06:14:09;35.30;;;17.00;;
8337;SDS011;4206;48.634;9.516;2022-11-15T06:16:35;31.53;;;16.80;;
8337;SDS011;4206;48.634;9.516;2022-11-15T06:19:00;24.43;;;12.03;;
8337;SDS011;4206;48.634;9.516;2022-11-15T06:21:26;20.63;;;11.90;;
8337;SDS011;4206;48.634;9.516;2022-11-15T06:23:54;18.27;;;9.80;;
8337;SDS011;4206;48.634;9.516;2022-11-15T06:26:19;20.70;;;10.60;;
8337;SDS011;4206;48.634;9.516;2022-11-15T06:28:45;20.90;;;11.43;;
8337;SDS011;4206;48.634;9.516;2022-11-15T06:31:11;15.70;;;9.97;;
8337;SDS011;4206;48.634;9.516;2022-11-15T06:33:37;12.87;;;8.30;;
8337;SDS011;4206;48.634;9.516;2022-11-15T06:36:04;18.27;;;10.00;;
8337;SDS011;4206;48.634;9.516;2022-11-15T06:38:33;34.13;;;17.10;;
8337;SDS011;4206;48.634;9.516;2022-11-15T06:41:01;12.17;;;7.30;;
8337;SDS011;4206;48.634;9.516;2022-11-15T06:43:28;20.37;;;8.43;;
8337;SDS011;4206;48.634;9.516;2022-11-15T06:45:53;11.33;;;7.80;;
8337;SDS011;4206;48.634;9.516;2022-11-15T06:48:19;11.47;;;8.27;;
8337;SDS011;4206;48.634;9.516;2022-11-15T06:50:50;12.10;;;8.40;;
8337;SDS011;4206;48.634;9.516;2022-11-15T06:53:16;11.03;;;7.60;;
8337;SDS011;4206;48.634;9.516;2022-11-15T06:55:42;16.67;;;10.33;;
8337;SDS011;4206;48.634;9.516;2022-11-15T06:58:08;27.50;;;16.27;;
8337;SDS011;4206;48.634;9.516;2022-11-15T07:00:33;21.90;;;12.53;;
8337;SDS011;4206;48.634;9.516;2022-11-15T07:02:59;26.73;;;16.00;;
8337;SDS011;4206;48.634;9.516;2022-11-15T07:05:25;15.83;;;9.63;;
8337;SDS011;4206;48.634;9.516;2022-11-15T07:07:53;24.83;;;12.80;;
8337;SDS011;4206;48.634;9.516;2022-11-15T07:10:20;25.33;;;13.33;;
8337;SDS011;4206;48.634;9.516;2022-11-15T07:12:47;26.03;;;13.10;;
8337;SDS011;4206;48.634;9.516;2022-11-15T07:15:13;20.07;;;13.10;;
8337;SDS011;4206;48.634;9.516;2022-11-15T07:17:40;24.90;;;12.10;;
8337;SDS011;4206;48.634;9.516;2022-11-15T07:20:06;17.33;;;10.90;;
8337;SDS011;4206;48.634;9.516;2022-11-15T07:22:31;23.80;;;13.00;;
8337;SDS011;4206;48.634;9.516;2022-11-15T07:24:57;14.23;;;8.97;;
8337;SDS011;4206;48.634;9.516;2022-11-15T07:27:23;21.40;;;8.20;;
8337;SDS011;4206;48.634;9.516;2022-11-15T07:29:48;9.53;;;6.40;;
8337;SDS011;4206;48.634;9.516;2022-11-15T07:32:14;11.93;;;6.60;;
8337;SDS011;4206;48.634;9.516;2022-11-15T07:34:39;27.60;;;13.47;;
8337;SDS011;4206;48.634;9.516;2022-11-15T07:37:05;129.63;;;55.07;;
8337;SDS011;4206;48.634;9.516;2022-11-15T07:39:30;21.00;;;11.77;;
8337;SDS011;4206;48.634;9.516;2022-11-15T07:41:56;14.13;;;6.43;;
8337;SDS011;4206;48.634;9.516;2022-11-15T07:44:41;9.60;;;5.47;;
8337;SDS011;4206;48.634;9.516;2022-11-15T07:47:07;20.10;;;11.57;;
8337;SDS011;4206;48.634;9.516;2022-11-15T07:49:33;42.70;;;23.27;;
8337;SDS011;4206;48.634;9.516;2022-11-15T07:51:58;48.63;;;25.97;;
8337;SDS011;4206;48.634;9.516;2022-11-15T07:54:24;42.90;;;24.57;;
8337;SDS011;4206;48.634;9.516;2022-11-15T07:56:50;44.93;;;26.00;;
8337;SDS011;4206;48.634;9.516;2022-11-15T07:59:15;41.80;;;22.50;;
8337;SDS011;4206;48.634;9.516;2022-11-15T08:01:41;56.83;;;32.23;;
8337;SDS011;4206;48.634;9.516;2022-11-15T08:04:06;40.87;;;23.53;;
8337;SDS011;4206;48.634;9.516;2022-11-15T08:06:32;32.70;;;19.67;;
8337;SDS011;4206;48.634;9.516;2022-11-15T08:08:58;21.90;;;13.90;;
8337;SDS011;4206;48.634;9.516;2022-11-15T08:11:23;16.57;;;10.13;;
8337;SDS011;4206;48.634;9.516;2022-11-15T08:13:49;23.07;;;13.80;;
8337;SDS011;4206;48.634;9.516;2022-11-15T08:16:14;26.40;;;12.77;;
8337;SDS011;4206;48.634;9.516;2022-11-15T08:18:40;17.83;;;11.00;;
8337;SDS011;4206;48.634;9.516;2022-11-15T08:21:06;16.40;;;9.70;;
8337;SDS011;4206;48.634;9.516;2022-11-15T08:23:34;12.70;;;7.47;;
8337;SDS011;4206;48.634;9.516;2022-11-15T08:26:01;11.33;;;6.50;;
8337;SDS011;4206;48.634;9.516;2022-11-15T08:28:28;10.23;;;6.77;;
8337;SDS011;4206;48.634;9.516;2022-11-15T08:30:54;23.60;;;8.80;;
8337;SDS011;4206;48.634;9.516;2022-11-15T08:33:19;18.43;;;10.17;;
8337;SDS011;4206;48.634;9.516;2022-11-15T08:35:45;24.60;;;10.20;;
8337;SDS011;4206;48.634;9.516;2022-11-15T08:38:11;15.30;;;8.60;;
8337;SDS011;4206;48.634;9.516;2022-11-15T08:40:37;15.50;;;9.30;;
8337;SDS011;4206;48.634;9.516;2022-11-15T08:43:03;13.57;;;8.23;;
8337;SDS011;4206;48.634;9.516;2022-11-15T08:45:29;16.47;;;6.33;;
8337;SDS011;4206;48.634;9.516;2022-11-15T08:47:55;12.17;;;5.87;;
8337;SDS011;4206;48.634;9.516;2022-11-15T08:50:22;21.27;;;6.27;;
8337;SDS011;4206;48.634;9.516;2022-11-15T08:52:48;16.13;;;5.80;;
8337;SDS011;4206;48.634;9.516;2022-11-15T08:55:13;29.43;;;6.33;;
8337;SDS011;4206;48.634;9.516;2022-11-15T08:57:39;26.90;;;7.50;;
8337;SDS011;4206;48.634;9.516;2022-11-15T09:00:05;25.50;;;7.33;;
8337;SDS011;4206;48.634;9.516;2022-11-15T09:02:31;46.50;;;7.80;;
8337;SDS011;4206;48.634;9.516;2022-11-15T09:04:57;11.37;;;4.53;;
8337;SDS011;4206;48.634;9.516;2022-11-15T09:07:22;21.63;;;6.17;;
8337;SDS011;4206;48.634;9.516;2022-11-15T09:09:49;5.67;;;4.43;;
8337;SDS011;4206;48.634;9.516;2022-11-15T09:12:14;18.57;;;4.43;;
8337;SDS011;4206;48.634;9.516;2022-11-15T09:14:40;14.30;;;5.13;;
8337;SDS011;4206;48.634;9.516;2022-11-15T09:17:07;16.43;;;4.43;;
8337;SDS011;4206;48.634;9.516;2022-11-15T09:19:33;3.60;;;2.80;;
8337;SDS011;4206;48.634;9.516;2022-11-15T09:21:59;11.40;;;4.60;;
8337;SDS011;4206;48.634;9.516;2022-11-15T09:24:25;20.50;;;5.40;;
8337;SDS011;4206;48.634;9.516;2022-11-15T09:26:51;10.00;;;4.80;;
8337;SDS011;4206;48.634;9.516;2022-11-15T09:29:17;7.10;;;4.97;;
8337;SDS011;4206;48.634;9.516;2022-11-15T09:31:43;9.00;;;4.40;;
8337;SDS011;4206;48.634;9.516;2022-11-15T09:34:08;7.37;;;4.03;;
8337;SDS011;4206;48.634;9.516;2022-11-15T09:36:34;8.43;;;4.53;;
8337;SDS011;4206;48.634;9.516;2022-11-15T09:39:00;15.60;;;6.03;;
8337;SDS011;4206;48.634;9.516;2022-11-15T09:44:16;8.93;;;4.73;;
8337;SDS011;4206;48.634;9.516;2022-11-15T09:49:25;10.57;;;4.40;;
8337;SDS011;4206;48.634;9.516;2022-11-15T09:51:52;8.50;;;4.63;;
8337;SDS011;4206;48.634;9.516;2022-11-15T09:54:28;7.20;;;4.50;;
8337;SDS011;4206;48.634;9.516;2022-11-15T09:57:04;9.70;;;3.60;;
8337;SDS011;4206;48.634;9.516;2022-11-15T10:04:36;29.73;;;5.67;;
8337;SDS011;4206;48.634;9.516;2022-11-15T10:09:54;10.80;;;4.63;;
8337;SDS011;4206;48.634;9.516;2022-11-15T10:12:27;7.80;;;4.40;;
8337;SDS011;4206;48.634;9.516;2022-11-15T10:14:57;6.60;;;4.40;;
8337;SDS011;4206;48.634;9.516;2022-11-15T10:22:52;5.90;;;3.93;;
8337;SDS011;4206;48.634;9.516;2022-11-15T10:27:53;6.87;;;3.90;;
8337;SDS011;4206;48.634;9.516;2022-11-15T10:30:20;8.33;;;4.70;;
8337;SDS011;4206;48.634;9.516;2022-11-15T10:32:47;7.87;;;4.33;;
8337;SDS011;4206;48.634;9.516;2022-11-15T10:35:16;5.57;;;4.00;;
8337;SDS011;4206;48.634;9.516;2022-11-15T10:37:43;8.70;;;4.70;;
8337;SDS011;4206;48.634;9.516;2022-11-15T10:40:18;5.40;;;4.43;;
8337;SDS011;4206;48.634;9.516;2022-11-15T10:42:46;5.10;;;4.40;;
8337;SDS011;4206;48.634;9.516;2022-11-15T10:47:59;4.67;;;3.73;;
8337;SDS011;4206;48.634;9.516;2022-11-15T10:50:45;5.30;;;3.40;;
8337;SDS011;4206;48.634;9.516;2022-11-15T10:53:18;5.97;;;3.83;;
8337;SDS011;4206;48.634;9.516;2022-11-15T10:55:46;4.33;;;3.47;;
8337;SDS011;4206;48.634;9.516;2022-11-15T11:01:08;3.83;;;2.50;;
8337;SDS011;4206;48.634;9.516;2022-11-15T11:03:43;4.97;;;2.27;;
8337;SDS011;4206;48.634;9.516;2022-11-15T11:06:11;5.13;;;2.47;;
8337;SDS011;4206;48.634;9.516;2022-11-15T11:08:40;8.03;;;4.00;;
8337;SDS011;4206;48.634;9.516;2022-11-15T11:11:18;9.40;;;3.40;;
8337;SDS011;4206;48.634;9.516;2022-11-15T11:13:44;4.17;;;3.10;;
8337;SDS011;4206;48.634;9.516;2022-11-15T11:21:24;11.20;;;4.40;;
8337;SDS011;4206;48.634;9.516;2022-11-15T11:24:05;6.33;;;4.93;;
8337;SDS011;4206;48.634;9.516;2022-11-15T11:29:35;11.03;;;5.30;;
8337;SDS011;4206;48.634;9.516;2022-11-15T11:32:05;9.93;;;5.83;;
8337;SDS011;4206;48.634;9.516;2022-11-15T11:34:54;16.13;;;6.57;;
8337;SDS011;4206;48.634;9.516;2022-11-15T11:37:36;9.47;;;6.03;;
8337;SDS011;4206;48.634;9.516;2022-11-15T11:42:42;10.20;;;6.63;;
8337;SDS011;4206;48.634;9.516;2022-11-15T11:50:38;12.70;;;7.30;;
8337;SDS011;4206;48.634;9.516;2022-11-15T11:55:45;8.30;;;5.50;;
8337;SDS011;4206;48.634;9.516;2022-11-15T11:58:18;15.67;;;6.93;;
8337;SDS011;4206;48.634;9.516;2022-11-15T12:00:49;11.00;;;7.30;;
8337;SDS011;4206;48.634;9.516;2022-11-15T12:05:57;12.20;;;6.77;;
8337;SDS011;4206;48.634;9.516;2022-11-15T12:11:00;12.33;;;6.20;;
8337;SDS011;4206;48.634;9.516;2022-11-15T12:13:34;9.70;;;6.63;;
8337;SDS011;4206;48.634;9.516;2022-11-15T12:16:05;11.90;;;6.10;;
8337;SDS011;4206;48.634;9.516;2022-11-15T12:18:36;15.63;;;7.77;;
8337;SDS011;4206;48.634;9.516;2022-11-15T12:21:05;10.80;;;6.87;;
8337;SDS011;4206;48.634;9.516;2022-11-15T12:23:43;13.93;;;6.23;;
8337;SDS011;4206;48.634;9.516;2022-11-15T12:26:17;17.97;;;6.23;;
8337;SDS011;4206;48.634;9.516;2022-11-15T12:28:51;13.60;;;7.40;;
8337;SDS011;4206;48.634;9.516;2022-11-15T12:31:24;17.57;;;7.70;;
8337;SDS011;4206;48.634;9.516;2022-11-15T12:33:50;12.30;;;5.73;;
8337;SDS011;4206;48.634;9.516;2022-11-15T12:41:21;21.50;;;6.33;;
8337;SDS011;4206;48.634;9.516;2022-11-15T12:43:49;9.50;;;4.17;;
8337;SDS011;4206;48.634;9.516;2022-11-15T12:48:46;15.90;;;5.87;;
8337;SDS011;4206;48.634;9.516;2022-11-15T12:51:14;11.47;;;5.50;;
8337;SDS011;4206;48.634;9.516;2022-11-15T12:53:39;12.50;;;5.90;;
8337;SDS011;4206;48.634;9.516;2022-11-15T13:06:41;9.60;;;5.87;;
8337;SDS011;4206;48.634;9.516;2022-11-15T13:11:57;17.13;;;6.10;;
8337;SDS011;4206;48.634;9.516;2022-11-15T13:17:16;18.43;;;7.40;;
8337;SDS011;4206;48.634;9.516;2022-11-15T13:22:23;14.23;;;7.20;;
8337;SDS011;4206;48.634;9.516;2022-11-15T13:25:14;19.13;;;5.70;;
8337;SDS011;4206;48.634;9.516;2022-11-15T13:27:44;14.37;;;6.50;;
8337;SDS011;4206;48.634;9.516;2022-11-15T13:30:14;10.87;;;5.97;;
8337;SDS011;4206;48.634;9.516;2022-11-15T13:32:44;10.33;;;5.43;;
8337;SDS011;4206;48.634;9.516;2022-11-15T13:35:17;8.20;;;5.73;;
8337;SDS011;4206;48.634;9.516;2022-11-15T13:37:46;14.80;;;9.27;;
8337;SDS011;4206;48.634;9.516;2022-11-15T13:42:56;11.83;;;6.40;;
8337;SDS011;4206;48.634;9.516;2022-11-15T13:45:23;11.07;;;6.30;;
8337;SDS011;4206;48.634;9.516;2022-11-15T13:47:51;12.33;;;6.20;;
8337;SDS011;4206;48.634;9.516;2022-11-15T13:50:19;11.87;;;6.40;;
8337;SDS011;4206;48.634;9.516;2022-11-15T13:52:49;11.70;;;5.80;;
8337;SDS011;4206;48.634;9.516;2022-11-15T13:55:17;16.57;;;6.83;;
8337;SDS011;4206;48.634;9.516;2022-11-15T13:57:54;17.93;;;8.10;;
8337;SDS011;4206;48.634;9.516;2022-11-15T14:05:39;18.77;;;8.03;;
8337;SDS011;4206;48.634;9.516;2022-11-15T14:08:21;12.20;;;5.90;;
8337;SDS011;4206;48.634;9.516;2022-11-15T14:10:49;9.27;;;5.83;;
8337;SDS011;4206;48.634;9.516;2022-11-15T14:13:32;14.13;;;5.63;;
8337;SDS011;4206;48.634;9.516;2022-11-15T14:18:45;23.73;;;9.40;;
8337;SDS011;4206;48.634;9.516;2022-11-15T14:21:14;25.70;;;10.03;;
8337;SDS011;4206;48.634;9.516;2022-11-15T14:23:40;26.00;;;10.23;;
8337;SDS011;4206;48.634;9.516;2022-11-15T14:26:10;11.83;;;6.10;;
8337;SDS011;4206;48.634;9.516;2022-11-15T14:28:51;11.33;;;5.00;;
8337;SDS011;4206;48.634;9.516;2022-11-15T14:31:17;14.77;;;6.83;;
8337;SDS011;4206;48.634;9.516;2022-11-15T14:33:44;12.97;;;5.90;;
8337;SDS011;4206;48.634;9.516;2022-11-15T14:38:40;10.93;;;6.03;;
8337;SDS011;4206;48.634;9.516;2022-11-15T14:41:20;15.57;;;6.00;;
8337;SDS011;4206;48.634;9.516;2022-11-15T14:43:48;10.50;;;6.80;;
8337;SDS011;4206;48.634;9.516;2022-11-15T14:46:15;14.43;;;8.00;;
8337;SDS011;4206;48.634;9.516;2022-11-15T14:48:41;15.50;;;8.00;;
8337;SDS011;4206;48.634;9.516;2022-11-15T14:51:11;15.87;;;6.90;;
8337;SDS011;4206;48.634;9.516;2022-11-15T14:53:39;12.43;;;5.53;;
8337;SDS011;4206;48.634;9.516;2022-11-15T14:56:06;22.10;;;7.80;;
8337;SDS011;4206;48.634;9.516;2022-11-15T14:58:32;27.40;;;7.80;;
8337;SDS011;4206;48.634;9.516;2022-11-15T15:00:57;9.60;;;6.27;;
8337;SDS011;4206;48.634;9.516;2022-11-15T15:03:23;12.13;;;7.10;;
8337;SDS011;4206;48.634;9.516;2022-11-15T15:05:49;12.30;;;7.00;;
8337;SDS011;4206;48.634;9.516;2022-11-15T15:08:14;13.00;;;6.20;;
8337;SDS011;4206;48.634;9.516;2022-11-15T15:10:42;21.73;;;10.13;;
8337;SDS011;4206;48.634;9.516;2022-11-15T15:15:44;11.90;;;7.57;;
8337;SDS011;4206;48.634;9.516;2022-11-15T15:18:10;14.73;;;7.07;;
8337;SDS011;4206;48.634;9.516;2022-11-15T15:20:36;17.57;;;6.80;;
8337;SDS011;4206;48.634;9.516;2022-11-15T15:23:04;15.87;;;9.10;;
8337;SDS011;4206;48.634;9.516;2022-11-15T15:25:31;19.47;;;9.40;;
8337;SDS011;4206;48.634;9.516;2022-11-15T15:27:58;9.30;;;5.50;;
8337;SDS011;4206;48.634;9.516;2022-11-15T15:30:25;12.20;;;5.07;;
8337;SDS011;4206;48.634;9.516;2022-11-15T15:32:52;12.63;;;6.23;;
8337;SDS011;4206;48.634;9.516;2022-11-15T15:35:19;17.70;;;6.40;;
8337;SDS011;4206;48.634;9.516;2022-11-15T15:37:45;17.63;;;8.27;;
8337;SDS011;4206;48.634;9.516;2022-11-15T15:40:14;10.27;;;6.87;;
8337;SDS011;4206;48.634;9.516;2022-11-15T15:42:40;10.47;;;7.27;;
8337;SDS011;4206;48.634;9.516;2022-11-15T15:45:07;10.47;;;6.03;;
8337;SDS011;4206;48.634;9.516;2022-11-15T15:47:33;8.07;;;5.27;;
8337;SDS011;4206;48.634;9.516;2022-11-15T15:49:59;11.27;;;6.67;;
8337;SDS011;4206;48.634;9.516;2022-11-15T15:52:24;12.50;;;5.50;;
8337;SDS011;4206;48.634;9.516;2022-11-15T15:54:50;9.30;;;5.40;;
8337;SDS011;4206;48.634;9.516;2022-11-15T15:57:16;8.93;;;5.70;;
8337;SDS011;4206;48.634;9.516;2022-11-15T15:59:41;11.73;;;5.23;;
8337;SDS011;4206;48.634;9.516;2022-11-15T16:02:09;11.23;;;5.50;;
8337;SDS011;4206;48.634;9.516;2022-11-15T16:04:37;7.63;;;4.10;;
8337;SDS011;4206;48.634;9.516;2022-11-15T16:07:03;10.70;;;6.30;;
8337;SDS011;4206;48.634;9.516;2022-11-15T16:09:29;17.80;;;10.80;;
8337;SDS011;4206;48.634;9.516;2022-11-15T16:12:10;19.70;;;11.83;;
8337;SDS011;4206;48.634;9.516;2022-11-15T16:14:36;13.47;;;8.30;;
8337;SDS011;4206;48.634;9.516;2022-11-15T16:17:01;12.90;;;6.50;;
8337;SDS011;4206;48.634;9.516;2022-11-15T16:19:27;9.20;;;6.30;;
8337;SDS011;4206;48.634;9.516;2022-11-15T16:21:53;10.90;;;5.90;;
8337;SDS011;4206;48.634;9.516;2022-11-15T16:24:20;11.33;;;6.67;;
8337;SDS011;4206;48.634;9.516;2022-11-15T16:26:46;10.67;;;5.60;;
8337;SDS011;4206;48.634;9.516;2022-11-15T16:29:13;17.03;;;6.67;;
8337;SDS011;4206;48.634;9.516;2022-11-15T16:31:39;9.07;;;5.43;;
8337;SDS011;4206;48.634;9.516;2022-11-15T16:34:04;10.60;;;5.20;;
8337;SDS011;4206;48.634;9.516;2022-11-15T16:36:32;11.03;;;5.57;;
8337;SDS011;4206;48.634;9.516;2022-11-15T16:38:59;10.77;;;7.00;;
8337;SDS011;4206;48.634;9.516;2022-11-15T16:41:28;9.07;;;5.97;;
8337;SDS011;4206;48.634;9.516;2022-11-15T16:43:54;19.43;;;7.10;;
8337;SDS011;4206;48.634;9.516;2022-11-15T16:46:22;12.60;;;4.80;;
8337;SDS011;4206;48.634;9.516;2022-11-15T16:48:49;6.67;;;5.10;;
8337;SDS011;4206;48.634;9.516;2022-11-15T16:51:15;11.63;;;5.10;;
8337;SDS011;4206;48.634;9.516;2022-11-15T16:53:42;6.43;;;4.40;;
8337;SDS011;4206;48.634;9.516;2022-11-15T16:58:52;11.50;;;5.07;;
8337;SDS011;4206;48.634;9.516;2022-11-15T17:01:23;9.50;;;5.50;;
8337;SDS011;4206;48.634;9.516;2022-11-15T17:03:54;10.93;;;5.37;;
8337;SDS011;4206;48.634;9.516;2022-11-15T17:06:20;9.90;;;5.87;;
8337;SDS011;4206;48.634;9.516;2022-11-15T17:08:47;9.23;;;5.60;;